createdAt,value
2023-01-13T00:00:16.035Z,9.95
2023-01-13T00:02:43.017Z,10.25
2023-01-13T00:05:10.687Z,10.85
2023-01-13T00:07:40.190Z,10.88
2023-01-13T00:10:11.437Z,9.70
2023-01-13T00:12:41.918Z,8.68
2023-01-13T00:15:09.553Z,11.60
2023-01-13T00:17:36.536Z,9.10
2023-01-13T00:20:03.780Z,9.10
2023-01-13T00:22:33.899Z,8.45
2023-01-13T00:25:01.621Z,9.50
2023-01-13T00:27:29.349Z,9.68
2023-01-13T00:29:56.262Z,11.43
2023-01-13T00:32:23.256Z,10.48
2023-01-13T00:34:50.102Z,10.45
2023-01-13T00:37:17.616Z,10.02
2023-01-13T00:39:44.457Z,10.80
2023-01-13T00:42:29.926Z,11.65
2023-01-13T00:44:56.922Z,10.98
2023-01-13T00:47:23.674Z,11.80
2023-01-13T00:49:50.484Z,10.85
2023-01-13T00:52:17.294Z,10.70
2023-01-13T00:54:44.065Z,10.45
2023-01-13T00:57:11.095Z,10.93
2023-01-13T00:59:37.888Z,13.15
2023-01-13T01:02:04.791Z,10.40
2023-01-13T01:04:31.672Z,11.68
2023-01-13T01:06:58.609Z,12.35
2023-01-13T01:09:32.657Z,9.38
2023-01-13T01:14:27.331Z,10.68
2023-01-13T01:16:54.744Z,10.85
2023-01-13T01:19:21.698Z,9.85
2023-01-13T01:21:48.637Z,13.50
2023-01-13T01:24:16.709Z,10.40
2023-01-13T01:26:43.651Z,9.95
2023-01-13T01:29:14.577Z,11.68
2023-01-13T01:31:41.636Z,10.35
2023-01-13T01:34:08.490Z,11.45
2023-01-13T01:36:36.615Z,10.63
2023-01-13T01:39:04.401Z,9.65
2023-01-13T01:41:34.534Z,10.82
2023-01-13T01:44:08.536Z,9.52
2023-01-13T01:46:43.955Z,8.88
2023-01-13T01:49:25.751Z,10.25
2023-01-13T01:51:59.709Z,11.10
2023-01-13T01:54:41.321Z,9.90
2023-01-13T01:57:11.437Z,7.97
2023-01-13T01:59:39.500Z,11.98
2023-01-13T02:02:06.663Z,10.05
2023-01-13T02:04:40.701Z,8.18
2023-01-13T02:07:08.137Z,9.32
2023-01-13T02:09:36.019Z,11.13
2023-01-13T02:12:21.616Z,13.50
2023-01-13T02:14:48.481Z,10.02
2023-01-13T02:17:21.391Z,9.25
2023-01-13T02:20:19.301Z,9.40
2023-01-13T02:23:04.884Z,8.60
2023-01-13T02:25:59.782Z,10.75
2023-01-13T02:29:25.007Z,8.30
2023-01-13T02:31:56.915Z,9.18
2023-01-13T02:34:32.303Z,9.52
2023-01-13T02:37:12.753Z,9.20
2023-01-13T02:39:56.060Z,8.88
2023-01-13T02:42:47.600Z,8.80
2023-01-13T02:45:32.327Z,9.15
2023-01-13T02:48:01.722Z,9.77
2023-01-13T02:50:41.362Z,11.23
2023-01-13T02:53:34.590Z,10.38
2023-01-13T02:56:03.650Z,9.48
2023-01-13T02:58:32.957Z,9.38
2023-01-13T03:00:59.779Z,10.23
2023-01-13T03:03:26.626Z,9.10
2023-01-13T03:06:02.476Z,9.45
2023-01-13T03:08:54.981Z,8.98
2023-01-13T03:11:22.256Z,10.70
2023-01-13T03:14:15.503Z,9.80
2023-01-13T03:16:59.586Z,9.32
2023-01-13T03:19:30.812Z,10.00
2023-01-13T03:22:11.566Z,9.40
2023-01-13T03:24:49.991Z,8.70
2023-01-13T03:27:49.420Z,12.25
2023-01-13T03:30:21.929Z,9.68
2023-01-13T03:32:59.527Z,8.90
2023-01-13T03:35:40.337Z,9.38
2023-01-13T03:38:13.416Z,9.10
2023-01-13T03:40:48.084Z,9.48
2023-01-13T03:43:39.652Z,8.25
2023-01-13T03:46:17.675Z,9.70
2023-01-13T03:48:46.859Z,10.27
2023-01-13T03:51:18.060Z,10.60
2023-01-13T03:53:53.507Z,11.00
2023-01-13T03:56:26.862Z,11.27
2023-01-13T03:58:54.486Z,11.25
2023-01-13T04:01:21.279Z,11.77
2023-01-13T04:04:00.364Z,12.07
2023-01-13T04:06:47.529Z,9.18
2023-01-13T04:09:24.160Z,11.82
2023-01-13T04:12:01.514Z,12.93
2023-01-13T04:14:29.013Z,12.07
2023-01-13T04:16:56.636Z,12.32
2023-01-13T04:19:23.394Z,12.55
2023-01-13T04:21:50.199Z,11.10
2023-01-13T04:24:17.080Z,11.40
2023-01-13T04:26:43.873Z,12.45
2023-01-13T04:29:10.669Z,11.52
2023-01-13T04:31:38.272Z,12.05
2023-01-13T04:34:05.058Z,12.18
2023-01-13T04:36:31.931Z,12.50
2023-01-13T04:38:59.127Z,12.60
2023-01-13T04:41:26.015Z,14.25
2023-01-13T04:43:52.893Z,14.13
2023-01-13T04:46:19.737Z,12.63
2023-01-13T04:48:46.552Z,13.63
2023-01-13T04:51:13.335Z,14.02
2023-01-13T04:53:40.079Z,11.75
2023-01-13T04:56:07.199Z,13.63
2023-01-13T04:58:34.012Z,13.60
2023-01-13T05:01:00.809Z,14.52
2023-01-13T05:03:27.588Z,12.88
2023-01-13T05:05:54.394Z,14.15
2023-01-13T05:08:21.125Z,13.23
2023-01-13T05:10:47.948Z,14.43
2023-01-13T05:13:33.435Z,13.32
2023-01-13T05:16:24.652Z,13.57
2023-01-13T05:18:51.471Z,13.10
2023-01-13T05:21:53.648Z,13.40
2023-01-13T05:24:39.032Z,13.27
2023-01-13T05:27:05.792Z,12.68
2023-01-13T05:29:32.583Z,13.60
2023-01-13T05:32:02.556Z,14.50
2023-01-13T05:34:29.399Z,12.65
2023-01-13T05:36:56.136Z,15.35
2023-01-13T05:39:24.516Z,12.43
2023-01-13T05:42:09.924Z,12.60
2023-01-13T05:44:36.730Z,14.13
2023-01-13T05:47:03.607Z,12.30
2023-01-13T05:49:30.420Z,21.48
2023-01-13T05:51:57.577Z,16.02
2023-01-13T05:54:24.402Z,13.75
2023-01-13T05:56:51.473Z,13.60
2023-01-13T05:59:18.258Z,14.13
2023-01-13T06:01:45.079Z,14.70
2023-01-13T06:04:11.877Z,16.83
2023-01-13T06:06:38.714Z,14.48
2023-01-13T06:09:05.525Z,13.90
2023-01-13T06:11:32.292Z,12.73
2023-01-13T06:13:59.039Z,14.05
2023-01-13T06:16:25.878Z,16.02
2023-01-13T06:18:52.654Z,14.65
2023-01-13T06:21:19.473Z,14.55
2023-01-13T06:23:46.358Z,13.35
2023-01-13T06:26:20.272Z,13.27
2023-01-13T06:28:47.064Z,15.55
2023-01-13T06:31:14.118Z,12.13
2023-01-13T06:33:46.066Z,12.73
2023-01-13T06:36:22.217Z,12.57
2023-01-13T06:38:54.913Z,13.75
2023-01-13T06:41:42.200Z,11.70
2023-01-13T06:44:09.212Z,16.20
2023-01-13T06:46:36.505Z,12.43
2023-01-13T06:49:03.379Z,14.48
2023-01-13T06:51:30.176Z,13.88
2023-01-13T06:53:57.004Z,12.98
2023-01-13T06:56:23.915Z,12.77
2023-01-13T06:58:50.748Z,13.85
2023-01-13T07:01:17.699Z,12.07
2023-01-13T07:03:44.547Z,13.23
2023-01-13T07:06:11.371Z,13.65
2023-01-13T07:08:38.171Z,12.95
2023-01-13T07:11:05.279Z,13.55
2023-01-13T07:13:50.824Z,13.68
2023-01-13T07:16:17.622Z,13.50
2023-01-13T07:18:44.514Z,14.95
2023-01-13T07:21:13.313Z,17.27
2023-01-13T07:23:41.613Z,17.15
2023-01-13T07:26:09.904Z,18.58
2023-01-13T07:28:37.547Z,18.40
2023-01-13T07:31:04.997Z,14.45
2023-01-13T07:33:34.679Z,14.57
2023-01-13T07:36:04.167Z,15.82
2023-01-13T07:38:33.839Z,11.93
2023-01-13T07:41:24.267Z,14.65
2023-01-13T07:43:52.172Z,16.42
2023-01-13T07:46:19.265Z,14.88
2023-01-13T07:48:47.973Z,14.52
2023-01-13T07:51:15.088Z,13.40
2023-01-13T07:53:41.921Z,13.52
2023-01-13T07:56:09.131Z,18.40
2023-01-13T07:58:37.279Z,12.38
2023-01-13T08:01:12.336Z,17.00
2023-01-13T08:03:40.631Z,12.63
2023-01-13T08:06:08.164Z,16.42
2023-01-13T08:08:35.267Z,14.50
2023-01-13T08:11:03.859Z,15.90
2023-01-13T08:13:30.975Z,16.02
2023-01-13T08:16:07.051Z,13.05
2023-01-13T08:18:37.181Z,13.60
2023-01-13T08:21:10.246Z,14.73
2023-01-13T08:23:37.644Z,19.42
2023-01-13T08:26:10.504Z,17.52
2023-01-13T08:28:40.375Z,16.48
2023-01-13T08:31:10.598Z,12.80
2023-01-13T08:33:37.786Z,14.02
2023-01-13T08:36:06.468Z,14.63
2023-01-13T08:38:34.724Z,21.23
2023-01-13T08:41:07.882Z,16.25
2023-01-13T08:43:34.736Z,19.03
2023-01-13T08:46:04.842Z,14.65
2023-01-13T08:48:31.930Z,13.57
2023-01-13T08:51:35.325Z,18.65
2023-01-13T08:54:02.457Z,16.85
2023-01-13T08:56:35.132Z,18.60
2023-01-13T08:59:02.722Z,15.95
2023-01-13T09:01:29.738Z,16.40
2023-01-13T09:03:56.915Z,13.45
2023-01-13T09:06:23.892Z,15.52
2023-01-13T09:08:50.833Z,16.30
2023-01-13T09:11:50.653Z,15.95
2023-01-13T09:14:19.646Z,19.75
2023-01-13T09:16:46.546Z,17.40
2023-01-13T09:19:13.478Z,14.07
2023-01-13T09:21:40.533Z,16.27
2023-01-13T09:24:16.878Z,16.42
2023-01-13T09:26:43.729Z,16.83
2023-01-13T09:29:10.613Z,14.98
2023-01-13T09:31:37.403Z,16.38
2023-01-13T09:34:25.526Z,15.15
2023-01-13T09:36:52.446Z,19.05
2023-01-13T09:39:19.866Z,17.27
2023-01-13T09:42:11.815Z,16.75
2023-01-13T09:44:48.980Z,22.35
2023-01-13T09:47:32.078Z,23.35
2023-01-13T09:50:25.900Z,26.02
2023-01-13T09:52:53.064Z,16.30
2023-01-13T09:55:33.613Z,19.38
2023-01-13T09:58:03.034Z,19.60
2023-01-13T10:00:38.787Z,21.45
2023-01-13T10:03:11.583Z,20.92
2023-01-13T10:05:39.322Z,19.92
2023-01-13T10:08:16.557Z,21.67
2023-01-13T10:10:47.179Z,16.17
2023-01-13T10:13:31.265Z,17.38
2023-01-13T10:16:21.327Z,16.52
2023-01-13T10:19:03.574Z,17.20
2023-01-13T10:22:15.340Z,17.90
2023-01-13T10:25:09.987Z,18.80
2023-01-13T10:27:39.610Z,15.38
2023-01-13T10:30:21.402Z,18.55
2023-01-13T10:32:57.398Z,17.25
2023-01-13T10:35:53.524Z,19.30
2023-01-13T10:38:48.176Z,17.17
2023-01-13T10:41:28.080Z,15.57
2023-01-13T10:44:09.399Z,19.30
2023-01-13T10:46:54.133Z,17.23
2023-01-13T10:49:36.142Z,19.65
2023-01-13T10:52:06.163Z,20.83
2023-01-13T10:54:53.038Z,16.42
2023-01-13T10:57:23.034Z,16.67
2023-01-13T10:59:51.176Z,21.55
2023-01-13T11:02:26.536Z,17.55
2023-01-13T11:04:54.948Z,17.25
2023-01-13T11:07:30.332Z,15.50
2023-01-13T11:10:24.697Z,17.20
2023-01-13T11:13:18.298Z,19.10
2023-01-13T11:15:55.282Z,16.02
2023-01-13T11:18:37.913Z,16.67
2023-01-13T11:21:16.117Z,20.33
2023-01-13T11:23:53.204Z,21.17
2023-01-13T11:26:27.204Z,21.25
2023-01-13T11:31:48.380Z,19.23
2023-01-13T11:34:45.272Z,20.15
2023-01-13T11:37:26.076Z,19.92
2023-01-13T11:40:03.926Z,20.67
2023-01-13T11:42:39.191Z,19.25
2023-01-13T11:45:16.933Z,18.67
2023-01-13T11:47:46.544Z,19.27
2023-01-13T11:50:35.214Z,17.25
2023-01-13T11:53:20.259Z,18.10
2023-01-13T11:55:55.995Z,19.95
2023-01-13T11:58:25.769Z,19.48
2023-01-13T12:01:22.264Z,18.60
2023-01-13T12:04:17.321Z,20.90
2023-01-13T12:06:46.051Z,16.73
2023-01-13T12:09:26.772Z,19.80
2023-01-13T12:12:20.517Z,19.23
2023-01-13T12:15:03.117Z,20.20
2023-01-13T12:17:47.714Z,18.10
2023-01-13T12:20:20.771Z,22.13
2023-01-13T12:22:49.768Z,20.15
2023-01-13T12:25:26.713Z,18.95
2023-01-13T12:28:00.569Z,20.92
2023-01-13T12:30:37.198Z,24.02
2023-01-13T12:33:30.882Z,22.83
2023-01-13T12:36:35.536Z,21.15
2023-01-13T12:39:17.062Z,17.88
2023-01-13T12:42:11.582Z,18.75
2023-01-13T12:44:54.680Z,23.67
2023-01-13T12:47:39.110Z,22.25
2023-01-13T12:52:57.005Z,22.48
2023-01-13T12:55:25.525Z,28.52
2023-01-13T12:58:12.580Z,21.85
2023-01-13T13:00:56.891Z,24.92
2023-01-13T13:06:24.062Z,26.20
2023-01-13T13:09:03.895Z,27.23
2023-01-13T13:11:57.552Z,23.58
2023-01-13T13:14:39.441Z,22.15
2023-01-13T13:17:28.124Z,21.10
2023-01-13T13:19:56.734Z,24.73
2023-01-13T13:22:26.678Z,22.80
2023-01-13T13:24:56.487Z,19.60
2023-01-13T13:27:32.189Z,20.85
2023-01-13T13:30:05.633Z,26.58
2023-01-13T13:32:47.577Z,24.65
2023-01-13T13:35:35.499Z,23.10
2023-01-13T13:38:55.324Z,22.13
2023-01-13T13:41:51.551Z,25.73
2023-01-13T13:44:47.526Z,25.08
2023-01-13T13:47:14.997Z,23.25
2023-01-13T13:49:45.667Z,23.00
2023-01-13T13:52:35.545Z,26.52
2023-01-13T13:55:14.195Z,22.83
2023-01-13T13:57:46.786Z,22.75
2023-01-13T14:00:23.074Z,26.80
2023-01-13T14:03:00.589Z,25.20
2023-01-13T14:05:35.124Z,23.08
2023-01-13T14:08:18.083Z,24.52
2023-01-13T14:10:46.446Z,25.58
2023-01-13T14:13:18.951Z,20.92
2023-01-13T14:15:47.794Z,25.25
2023-01-13T14:18:18.441Z,25.45
2023-01-13T14:20:59.697Z,21.48
2023-01-13T14:23:29.462Z,27.25
2023-01-13T14:26:01.306Z,22.48
2023-01-13T14:28:36.753Z,22.52
2023-01-13T14:31:05.220Z,26.48
2023-01-13T14:33:46.153Z,23.75
2023-01-13T14:36:33.184Z,21.75
2023-01-13T14:39:03.062Z,23.80
2023-01-13T14:41:36.530Z,26.98
2023-01-13T14:44:24.672Z,24.70
2023-01-13T14:46:51.964Z,25.00
2023-01-13T14:49:30.022Z,25.48
2023-01-13T14:52:25.615Z,22.88
2023-01-13T14:54:58.690Z,26.52
2023-01-13T14:57:32.085Z,22.55
2023-01-13T15:00:05.360Z,24.05
2023-01-13T15:02:34.690Z,28.17
2023-01-13T15:05:19.963Z,25.45
2023-01-13T15:08:00.097Z,22.60
2023-01-13T15:10:33.226Z,23.80
2023-01-13T15:13:02.705Z,24.63
2023-01-13T15:15:35.594Z,47.53
2023-01-13T15:18:13.866Z,30.92
2023-01-13T15:20:41.904Z,22.63
2023-01-13T15:23:09.458Z,23.45
2023-01-13T15:25:41.934Z,26.17
2023-01-13T15:28:20.067Z,32.08
2023-01-13T15:30:47.927Z,30.98
2023-01-13T15:33:16.038Z,26.30
2023-01-13T15:35:46.470Z,30.17
2023-01-13T15:38:15.666Z,29.77
2023-01-13T15:40:43.242Z,27.52
2023-01-13T15:43:36.583Z,27.88
2023-01-13T15:46:37.836Z,25.75
2023-01-13T15:49:17.528Z,26.90
2023-01-13T15:51:44.553Z,25.75
2023-01-13T15:54:12.067Z,28.52
2023-01-13T15:56:39.933Z,28.08
2023-01-13T15:59:22.040Z,31.27
2023-01-13T16:01:48.942Z,24.85
2023-01-13T16:04:15.852Z,33.08
2023-01-13T16:06:43.178Z,33.75
2023-01-13T16:09:13.994Z,32.50
2023-01-13T16:11:40.873Z,31.83
2023-01-13T16:14:07.723Z,38.13
2023-01-13T16:16:36.201Z,33.40
2023-01-13T16:19:03.085Z,36.55
2023-01-13T16:21:29.972Z,33.47
2023-01-13T16:23:56.789Z,32.00
2023-01-13T16:26:25.952Z,28.65
2023-01-13T16:28:55.465Z,32.30
2023-01-13T16:31:32.029Z,30.25
2023-01-13T16:34:01.005Z,34.80
2023-01-13T16:36:29.932Z,27.33
2023-01-13T16:38:57.257Z,31.52
2023-01-13T16:41:25.161Z,37.17
2023-01-13T16:43:52.630Z,29.88
2023-01-13T16:46:20.738Z,32.00
2023-01-13T16:48:48.343Z,31.17
2023-01-13T16:51:15.183Z,33.53
2023-01-13T16:53:42.033Z,33.92
2023-01-13T16:56:32.209Z,25.35
2023-01-13T16:59:05.668Z,29.92
2023-01-13T17:01:34.729Z,33.67
2023-01-13T17:04:01.613Z,32.10
2023-01-13T17:06:40.733Z,33.47
2023-01-13T17:09:18.361Z,29.38
2023-01-13T17:11:45.421Z,29.10
2023-01-13T17:14:18.368Z,28.08
2023-01-13T17:16:46.326Z,29.23
2023-01-13T17:19:14.037Z,36.95
2023-01-13T17:21:40.965Z,30.98
2023-01-13T17:24:09.624Z,37.90
2023-01-13T17:26:37.450Z,34.38
2023-01-13T17:29:11.723Z,57.35
2023-01-13T17:31:38.677Z,59.90
2023-01-13T17:34:05.563Z,60.67
2023-01-13T17:36:32.767Z,55.22
2023-01-13T17:38:59.725Z,45.08
2023-01-13T17:41:26.974Z,32.97
2023-01-13T17:43:53.843Z,36.08
2023-01-13T17:46:22.573Z,37.22
2023-01-13T17:48:51.057Z,35.22
2023-01-13T17:51:18.834Z,34.88
2023-01-13T17:53:45.958Z,35.88
2023-01-13T17:56:14.929Z,36.10
2023-01-13T17:58:42.054Z,37.13
2023-01-13T18:01:17.614Z,34.08
2023-01-13T18:03:44.885Z,35.33
2023-01-13T18:06:20.717Z,35.15
2023-01-13T18:08:48.181Z,35.33
2023-01-13T18:11:20.422Z,38.08
2023-01-13T18:13:49.753Z,38.78
2023-01-13T18:16:19.619Z,44.58
2023-01-13T18:18:49.066Z,46.80
2023-01-13T18:21:42.728Z,43.03
2023-01-13T18:24:33.895Z,55.00
2023-01-13T18:27:21.318Z,55.35
2023-01-13T18:29:53.215Z,45.67
2023-01-13T18:32:22.125Z,41.20
2023-01-13T18:34:53.934Z,46.80
2023-01-13T18:37:26.642Z,44.22
2023-01-13T18:39:53.790Z,41.85
2023-01-13T18:42:39.065Z,51.72
2023-01-13T18:45:06.313Z,47.22
2023-01-13T18:47:33.713Z,49.65
2023-01-13T18:50:00.831Z,46.97
2023-01-13T18:52:27.697Z,41.08
2023-01-13T18:54:54.577Z,38.05
2023-01-13T18:57:22.310Z,40.28
2023-01-13T18:59:49.179Z,39.38
2023-01-13T19:02:21.496Z,34.95
2023-01-13T19:04:48.486Z,34.55
2023-01-13T19:07:23.651Z,41.08
2023-01-13T19:09:50.500Z,33.85
2023-01-13T19:12:25.979Z,35.78
2023-01-13T19:14:56.909Z,37.65
2023-01-13T19:17:25.614Z,39.00
2023-01-13T19:19:55.121Z,45.33
2023-01-13T19:22:27.266Z,43.10
2023-01-13T19:24:54.340Z,36.78
2023-01-13T19:27:21.793Z,41.92
2023-01-13T19:29:52.504Z,36.65
2023-01-13T19:32:22.594Z,35.92
2023-01-13T19:34:51.232Z,37.92
2023-01-13T19:37:19.007Z,40.03
2023-01-13T19:39:46.022Z,38.28
2023-01-13T19:42:31.976Z,42.35
2023-01-13T19:45:17.418Z,39.95
2023-01-13T19:47:45.677Z,41.85
2023-01-13T19:50:14.000Z,40.65
2023-01-13T19:52:44.650Z,41.55
2023-01-13T19:55:12.525Z,42.30
2023-01-13T19:57:40.240Z,41.17
2023-01-13T20:00:10.250Z,41.83
2023-01-13T20:02:37.402Z,40.53
2023-01-13T20:05:06.579Z,40.25
2023-01-13T20:07:35.147Z,37.03
2023-01-13T20:10:02.454Z,40.30
2023-01-13T20:12:29.877Z,42.67
2023-01-13T20:14:57.057Z,40.75
2023-01-13T20:17:25.656Z,39.53
2023-01-13T20:19:53.029Z,40.33
2023-01-13T20:22:20.281Z,43.47
2023-01-13T20:24:47.165Z,40.10
2023-01-13T20:27:14.246Z,40.88
2023-01-13T20:29:41.037Z,39.03
2023-01-13T20:32:08.207Z,42.55
2023-01-13T20:34:36.713Z,42.28
2023-01-13T20:37:03.686Z,45.92
2023-01-13T20:39:31.227Z,45.78
2023-01-13T20:42:17.767Z,44.17
2023-01-13T20:44:45.456Z,43.17
2023-01-13T20:47:14.484Z,44.28
2023-01-13T20:49:42.850Z,42.50
2023-01-13T20:52:10.677Z,45.15
2023-01-13T20:54:39.282Z,48.20
2023-01-13T20:57:09.640Z,47.00
2023-01-13T20:59:40.941Z,45.20
2023-01-13T21:02:13.386Z,46.00
2023-01-13T21:04:42.432Z,46.40
2023-01-13T21:07:11.326Z,112.78
2023-01-13T21:09:38.994Z,123.18
2023-01-13T21:12:25.476Z,77.10
2023-01-13T21:15:12.392Z,51.47
2023-01-13T21:17:57.989Z,47.95
2023-01-13T21:20:24.818Z,43.08
2023-01-13T21:22:51.741Z,43.65
2023-01-13T21:25:19.634Z,44.80
2023-01-13T21:27:46.524Z,44.80
2023-01-13T21:30:15.480Z,43.60
2023-01-13T21:32:43.609Z,44.25
2023-01-13T21:35:11.288Z,40.28
2023-01-13T21:37:39.474Z,43.88
2023-01-13T21:40:08.270Z,45.90
2023-01-13T21:42:53.867Z,42.67
2023-01-13T21:45:40.421Z,45.28
2023-01-13T21:48:07.409Z,44.78
2023-01-13T21:50:34.515Z,46.42
2023-01-13T21:53:01.387Z,42.17
2023-01-13T21:55:29.741Z,44.85
2023-01-13T21:58:07.109Z,46.13
2023-01-13T22:00:34.276Z,40.45
2023-01-13T22:03:04.235Z,45.75
2023-01-13T22:05:50.324Z,43.35
2023-01-13T22:08:17.181Z,42.20
2023-01-13T22:11:00.198Z,47.00
2023-01-13T22:13:47.731Z,36.55
2023-01-13T22:16:15.198Z,41.60
2023-01-13T22:18:42.144Z,42.65
2023-01-13T22:21:09.036Z,39.65
2023-01-13T22:23:35.910Z,50.78
2023-01-13T22:26:04.262Z,42.15
2023-01-13T22:28:44.172Z,37.25
2023-01-13T22:31:16.882Z,43.28
2023-01-13T22:33:47.047Z,48.45
2023-01-13T22:36:15.211Z,50.47
2023-01-13T22:38:42.062Z,38.97
2023-01-13T22:41:10.209Z,47.38
2023-01-13T22:43:38.032Z,40.88
2023-01-13T22:46:07.720Z,41.60
2023-01-13T22:48:34.593Z,44.63
2023-01-13T22:51:09.406Z,46.08
2023-01-13T22:53:36.959Z,43.60
2023-01-13T22:56:04.652Z,42.13
2023-01-13T22:58:31.526Z,45.58
2023-01-13T23:01:11.825Z,46.78
2023-01-13T23:03:38.965Z,47.55
2023-01-13T23:06:06.091Z,45.97
2023-01-13T23:08:34.332Z,48.38
2023-01-13T23:11:03.484Z,46.13
2023-01-13T23:13:30.859Z,46.50
2023-01-13T23:16:03.367Z,45.70
2023-01-13T23:18:30.602Z,47.58
2023-01-13T23:21:01.909Z,45.30
2023-01-13T23:23:28.705Z,54.20
2023-01-13T23:25:56.519Z,48.20
2023-01-13T23:28:23.398Z,49.95
2023-01-13T23:30:51.617Z,53.80
2023-01-13T23:33:18.664Z,50.83
2023-01-13T23:35:59.401Z,53.30
2023-01-13T23:38:26.441Z,57.75
2023-01-13T23:40:53.683Z,53.75
2023-01-13T23:43:20.612Z,56.85
2023-01-13T23:45:47.481Z,54.55
2023-01-13T23:48:14.541Z,59.03
2023-01-13T23:50:42.218Z,57.97
2023-01-13T23:53:09.527Z,58.83
2023-01-13T23:55:36.409Z,57.80
2023-01-13T23:58:03.303Z,58.53
